sensor_id;sensor_type;location;lat;lon;timestamp;P1;durP1;ratioP1;P2;durP2;ratioP2
75928;SDS011;64606;44.062;2.986;2022-12-01T00:01:16;4.22;;;2.17;;
75928;SDS011;64606;44.062;2.986;2022-12-01T00:03:43;4.38;;;2.10;;
75928;SDS011;64606;44.062;2.986;2022-12-01T00:06:10;2.85;;;2.00;;
75928;SDS011;64606;44.062;2.986;2022-12-01T00:08:37;5.47;;;2.08;;
75928;SDS011;64606;44.062;2.986;2022-12-01T00:11:07;6.25;;;2.22;;
75928;SDS011;64606;44.062;2.986;2022-12-01T00:13:34;7.47;;;2.22;;
75928;SDS011;64606;44.062;2.986;2022-12-01T00:16:10;11.80;;;2.40;;
75928;SDS011;64606;44.062;2.986;2022-12-01T00:18:36;11.32;;;2.75;;
75928;SDS011;64606;44.062;2.986;2022-12-01T00:21:03;4.32;;;2.28;;
75928;SDS011;64606;44.062;2.986;2022-12-01T00:23:29;3.72;;;2.00;;
75928;SDS011;64606;44.062;2.986;2022-12-01T00:26:01;10.00;;;2.30;;
75928;SDS011;64606;44.062;2.986;2022-12-01T00:28:27;2.83;;;1.85;;
75928;SDS011;64606;44.062;2.986;2022-12-01T00:30:53;4.97;;;2.00;;
75928;SDS011;64606;44.062;2.986;2022-12-01T00:33:19;4.65;;;1.90;;
75928;SDS011;64606;44.062;2.986;2022-12-01T00:35:46;5.45;;;2.00;;
75928;SDS011;64606;44.062;2.986;2022-12-01T00:38:12;5.00;;;1.92;;
75928;SDS011;64606;44.062;2.986;2022-12-01T00:40:38;3.58;;;2.00;;
75928;SDS011;64606;44.062;2.986;2022-12-01T00:43:04;3.60;;;1.70;;
75928;SDS011;64606;44.062;2.986;2022-12-01T00:45:30;4.55;;;1.70;;
75928;SDS011;64606;44.062;2.986;2022-12-01T00:47:57;6.65;;;1.70;;
75928;SDS011;64606;44.062;2.986;2022-12-01T00:50:23;10.43;;;1.80;;
75928;SDS011;64606;44.062;2.986;2022-12-01T00:52:49;4.93;;;2.00;;
75928;SDS011;64606;44.062;2.986;2022-12-01T00:55:15;3.85;;;1.58;;
75928;SDS011;64606;44.062;2.986;2022-12-01T00:57:41;6.07;;;1.70;;
75928;SDS011;64606;44.062;2.986;2022-12-01T01:00:07;4.82;;;1.67;;
75928;SDS011;64606;44.062;2.986;2022-12-01T01:02:34;3.03;;;1.80;;
75928;SDS011;64606;44.062;2.986;2022-12-01T01:05:00;4.18;;;2.20;;
75928;SDS011;64606;44.062;2.986;2022-12-01T01:07:26;6.53;;;2.25;;
75928;SDS011;64606;44.062;2.986;2022-12-01T01:09:54;5.93;;;2.45;;
75928;SDS011;64606;44.062;2.986;2022-12-01T01:12:20;5.70;;;2.60;;
75928;SDS011;64606;44.062;2.986;2022-12-01T01:14:46;2.85;;;2.25;;
75928;SDS011;64606;44.062;2.986;2022-12-01T01:17:13;4.38;;;3.20;;
75928;SDS011;64606;44.062;2.986;2022-12-01T01:19:39;4.68;;;3.15;;
75928;SDS011;64606;44.062;2.986;2022-12-01T01:22:05;6.47;;;3.30;;
75928;SDS011;64606;44.062;2.986;2022-12-01T01:24:31;4.68;;;3.33;;
75928;SDS011;64606;44.062;2.986;2022-12-01T01:26:57;3.55;;;2.60;;
75928;SDS011;64606;44.062;2.986;2022-12-01T01:29:23;7.32;;;3.17;;
75928;SDS011;64606;44.062;2.986;2022-12-01T01:31:50;4.07;;;2.90;;
75928;SDS011;64606;44.062;2.986;2022-12-01T01:34:16;3.55;;;2.63;;
75928;SDS011;64606;44.062;2.986;2022-12-01T01:36:42;20.95;;;3.50;;
75928;SDS011;64606;44.062;2.986;2022-12-01T01:39:08;13.85;;;2.42;;
75928;SDS011;64606;44.062;2.986;2022-12-01T01:41:34;6.93;;;2.53;;
75928;SDS011;64606;44.062;2.986;2022-12-01T01:44:00;11.27;;;2.60;;
75928;SDS011;64606;44.062;2.986;2022-12-01T01:46:31;5.75;;;2.72;;
75928;SDS011;64606;44.062;2.986;2022-12-01T01:49:07;5.93;;;1.95;;
75928;SDS011;64606;44.062;2.986;2022-12-01T01:51:35;4.40;;;2.58;;
75928;SDS011;64606;44.062;2.986;2022-12-01T01:54:05;3.50;;;2.00;;
75928;SDS011;64606;44.062;2.986;2022-12-01T01:56:32;4.55;;;1.83;;
75928;SDS011;64606;44.062;2.986;2022-12-01T01:58:59;3.42;;;1.77;;
75928;SDS011;64606;44.062;2.986;2022-12-01T02:01:25;2.00;;;1.55;;
75928;SDS011;64606;44.062;2.986;2022-12-01T02:03:51;2.15;;;1.63;;
75928;SDS011;64606;44.062;2.986;2022-12-01T02:06:19;2.15;;;1.90;;
75928;SDS011;64606;44.062;2.986;2022-12-01T02:08:45;2.20;;;1.45;;
75928;SDS011;64606;44.062;2.986;2022-12-01T02:11:16;2.15;;;1.80;;
75928;SDS011;64606;44.062;2.986;2022-12-01T02:18:59;3.03;;;1.52;;
75928;SDS011;64606;44.062;2.986;2022-12-01T02:35:55;1.40;;;1.30;;
75928;SDS011;64606;44.062;2.986;2022-12-01T02:38:27;1.05;;;1.00;;
75928;SDS011;64606;44.062;2.986;2022-12-01T02:44:23;1.30;;;1.10;;
75928;SDS011;64606;44.062;2.986;2022-12-01T02:48:52;1.48;;;1.20;;
75928;SDS011;64606;44.062;2.986;2022-12-01T02:51:26;1.23;;;1.00;;
75928;SDS011;64606;44.062;2.986;2022-12-01T02:53:59;3.90;;;1.20;;
75928;SDS011;64606;44.062;2.986;2022-12-01T02:56:26;1.00;;;1.00;;
75928;SDS011;64606;44.062;2.986;2022-12-01T02:58:52;1.10;;;1.00;;
75928;SDS011;64606;44.062;2.986;2022-12-01T03:01:25;5.68;;;1.60;;
75928;SDS011;64606;44.062;2.986;2022-12-01T03:11:45;1.30;;;1.20;;
75928;SDS011;64606;44.062;2.986;2022-12-01T03:16:48;1.13;;;0.93;;
75928;SDS011;64606;44.062;2.986;2022-12-01T03:21:58;0.82;;;0.82;;
75928;SDS011;64606;44.062;2.986;2022-12-01T03:24:26;1.10;;;1.00;;
75928;SDS011;64606;44.062;2.986;2022-12-01T03:26:56;0.90;;;0.90;;
75928;SDS011;64606;44.062;2.986;2022-12-01T03:29:27;1.08;;;0.98;;
75928;SDS011;64606;44.062;2.986;2022-12-01T03:31:56;0.93;;;0.93;;
75928;SDS011;64606;44.062;2.986;2022-12-01T03:37:03;1.17;;;1.13;;
75928;SDS011;64606;44.062;2.986;2022-12-01T03:39:33;1.00;;;0.90;;
75928;SDS011;64606;44.062;2.986;2022-12-01T03:42:01;1.30;;;1.20;;
75928;SDS011;64606;44.062;2.986;2022-12-01T03:44:30;1.05;;;0.95;;
75928;SDS011;64606;44.062;2.986;2022-12-01T03:47:02;1.25;;;1.15;;
75928;SDS011;64606;44.062;2.986;2022-12-01T03:49:30;1.58;;;1.27;;
75928;SDS011;64606;44.062;2.986;2022-12-01T03:57:09;1.15;;;1.05;;
75928;SDS011;64606;44.062;2.986;2022-12-01T03:59:38;1.38;;;1.15;;
75928;SDS011;64606;44.062;2.986;2022-12-01T04:02:05;1.08;;;1.00;;
75928;SDS011;64606;44.062;2.986;2022-12-01T04:04:32;1.20;;;1.10;;
75928;SDS011;64606;44.062;2.986;2022-12-01T04:06:58;1.20;;;1.10;;
75928;SDS011;64606;44.062;2.986;2022-12-01T04:09:25;0.98;;;0.98;;
75928;SDS011;64606;44.062;2.986;2022-12-01T04:11:51;1.30;;;1.20;;
75928;SDS011;64606;44.062;2.986;2022-12-01T04:14:36;1.20;;;1.10;;
75928;SDS011;64606;44.062;2.986;2022-12-01T04:17:04;1.13;;;1.00;;
75928;SDS011;64606;44.062;2.986;2022-12-01T04:19:36;1.20;;;1.10;;
75928;SDS011;64606;44.062;2.986;2022-12-01T04:22:02;1.08;;;1.08;;
75928;SDS011;64606;44.062;2.986;2022-12-01T04:24:28;1.30;;;1.10;;
75928;SDS011;64606;44.062;2.986;2022-12-01T04:26:54;1.10;;;1.02;;
75928;SDS011;64606;44.062;2.986;2022-12-01T04:29:21;1.13;;;1.02;;
75928;SDS011;64606;44.062;2.986;2022-12-01T04:31:47;1.30;;;1.20;;
75928;SDS011;64606;44.062;2.986;2022-12-01T04:34:13;1.23;;;1.13;;
75928;SDS011;64606;44.062;2.986;2022-12-01T04:36:39;1.35;;;1.25;;
75928;SDS011;64606;44.062;2.986;2022-12-01T04:39:05;1.55;;;1.15;;
75928;SDS011;64606;44.062;2.986;2022-12-01T04:41:31;1.40;;;1.30;;
75928;SDS011;64606;44.062;2.986;2022-12-01T04:43:57;1.15;;;1.10;;
75928;SDS011;64606;44.062;2.986;2022-12-01T04:46:24;1.25;;;1.13;;
75928;SDS011;64606;44.062;2.986;2022-12-01T04:48:50;1.25;;;1.15;;
75928;SDS011;64606;44.062;2.986;2022-12-01T04:51:16;1.30;;;1.20;;
75928;SDS011;64606;44.062;2.986;2022-12-01T04:53:43;1.25;;;1.15;;
75928;SDS011;64606;44.062;2.986;2022-12-01T04:56:09;1.42;;;1.23;;
75928;SDS011;64606;44.062;2.986;2022-12-01T04:58:35;1.23;;;1.08;;
75928;SDS011;64606;44.062;2.986;2022-12-01T05:01:06;2.88;;;1.20;;
75928;SDS011;64606;44.062;2.986;2022-12-01T05:03:36;1.58;;;1.42;;
75928;SDS011;64606;44.062;2.986;2022-12-01T05:06:06;1.67;;;1.13;;
75928;SDS011;64606;44.062;2.986;2022-12-01T05:08:32;1.40;;;1.30;;
75928;SDS011;64606;44.062;2.986;2022-12-01T05:10:59;1.27;;;1.10;;
75928;SDS011;64606;44.062;2.986;2022-12-01T05:13:25;1.20;;;1.10;;
75928;SDS011;64606;44.062;2.986;2022-12-01T05:15:52;1.05;;;0.95;;
75928;SDS011;64606;44.062;2.986;2022-12-01T05:18:18;1.05;;;1.05;;
75928;SDS011;64606;44.062;2.986;2022-12-01T05:20:44;1.20;;;1.10;;
75928;SDS011;64606;44.062;2.986;2022-12-01T05:23:27;0.80;;;0.80;;
75928;SDS011;64606;44.062;2.986;2022-12-01T05:25:53;1.20;;;1.10;;
75928;SDS011;64606;44.062;2.986;2022-12-01T05:28:20;1.08;;;0.98;;
75928;SDS011;64606;44.062;2.986;2022-12-01T05:30:46;1.00;;;1.00;;
75928;SDS011;64606;44.062;2.986;2022-12-01T05:33:13;1.08;;;1.00;;
75928;SDS011;64606;44.062;2.986;2022-12-01T05:35:39;1.20;;;1.10;;
75928;SDS011;64606;44.062;2.986;2022-12-01T05:38:06;0.90;;;0.90;;
75928;SDS011;64606;44.062;2.986;2022-12-01T05:40:32;0.90;;;0.90;;
75928;SDS011;64606;44.062;2.986;2022-12-01T05:42:58;1.00;;;1.00;;
75928;SDS011;64606;44.062;2.986;2022-12-01T05:45:24;1.42;;;0.82;;
75928;SDS011;64606;44.062;2.986;2022-12-01T05:47:54;0.95;;;0.85;;
75928;SDS011;64606;44.062;2.986;2022-12-01T05:50:21;0.82;;;0.82;;
75928;SDS011;64606;44.062;2.986;2022-12-01T05:52:47;0.70;;;0.70;;
75928;SDS011;64606;44.062;2.986;2022-12-01T05:55:24;1.55;;;0.80;;
75928;SDS011;64606;44.062;2.986;2022-12-01T05:57:58;1.17;;;0.90;;
75928;SDS011;64606;44.062;2.986;2022-12-01T06:00:25;0.90;;;0.90;;
75928;SDS011;64606;44.062;2.986;2022-12-01T06:02:54;0.85;;;0.85;;
75928;SDS011;64606;44.062;2.986;2022-12-01T06:05:36;0.75;;;0.75;;
75928;SDS011;64606;44.062;2.986;2022-12-01T06:08:14;0.70;;;0.70;;
75928;SDS011;64606;44.062;2.986;2022-12-01T06:10:40;0.60;;;0.60;;
75928;SDS011;64606;44.062;2.986;2022-12-01T06:13:06;0.70;;;0.70;;
75928;SDS011;64606;44.062;2.986;2022-12-01T06:15:32;1.95;;;0.80;;
75928;SDS011;64606;44.062;2.986;2022-12-01T06:17:58;0.85;;;0.85;;
75928;SDS011;64606;44.062;2.986;2022-12-01T06:20:25;0.70;;;0.70;;
75928;SDS011;64606;44.062;2.986;2022-12-01T06:22:51;1.13;;;0.80;;
75928;SDS011;64606;44.062;2.986;2022-12-01T06:25:17;0.80;;;0.80;;
75928;SDS011;64606;44.062;2.986;2022-12-01T06:27:43;2.25;;;0.77;;
75928;SDS011;64606;44.062;2.986;2022-12-01T06:30:09;0.90;;;0.90;;
75928;SDS011;64606;44.062;2.986;2022-12-01T06:32:36;3.40;;;0.88;;
75928;SDS011;64606;44.062;2.986;2022-12-01T06:35:03;2.08;;;0.80;;
75928;SDS011;64606;44.062;2.986;2022-12-01T06:37:29;2.20;;;1.00;;
75928;SDS011;64606;44.062;2.986;2022-12-01T06:39:55;3.03;;;1.20;;
75928;SDS011;64606;44.062;2.986;2022-12-01T06:42:21;1.55;;;1.02;;
75928;SDS011;64606;44.062;2.986;2022-12-01T06:44:47;2.67;;;1.02;;
75928;SDS011;64606;44.062;2.986;2022-12-01T06:47:13;4.05;;;1.08;;
75928;SDS011;64606;44.062;2.986;2022-12-01T06:49:40;2.28;;;1.10;;
75928;SDS011;64606;44.062;2.986;2022-12-01T06:52:06;2.75;;;1.40;;
75928;SDS011;64606;44.062;2.986;2022-12-01T06:54:32;4.53;;;1.20;;
75928;SDS011;64606;44.062;2.986;2022-12-01T06:56:58;1.33;;;1.20;;
75928;SDS011;64606;44.062;2.986;2022-12-01T06:59:24;1.60;;;1.20;;
75928;SDS011;64606;44.062;2.986;2022-12-01T07:01:50;9.05;;;1.60;;
75928;SDS011;64606;44.062;2.986;2022-12-01T07:04:17;7.35;;;1.85;;
75928;SDS011;64606;44.062;2.986;2022-12-01T07:06:43;3.90;;;1.20;;
75928;SDS011;64606;44.062;2.986;2022-12-01T07:09:09;1.17;;;1.02;;
75928;SDS011;64606;44.062;2.986;2022-12-01T07:11:35;4.07;;;2.17;;
75928;SDS011;64606;44.062;2.986;2022-12-01T07:14:02;4.47;;;2.65;;
75928;SDS011;64606;44.062;2.986;2022-12-01T07:16:28;4.60;;;3.30;;
75928;SDS011;64606;44.062;2.986;2022-12-01T07:18:54;5.57;;;2.10;;
75928;SDS011;64606;44.062;2.986;2022-12-01T07:21:20;7.05;;;2.10;;
75928;SDS011;64606;44.062;2.986;2022-12-01T07:23:47;2.50;;;1.95;;
75928;SDS011;64606;44.062;2.986;2022-12-01T07:26:17;4.78;;;2.15;;
75928;SDS011;64606;44.062;2.986;2022-12-01T07:28:43;7.80;;;2.53;;
75928;SDS011;64606;44.062;2.986;2022-12-01T07:31:14;3.22;;;1.63;;
75928;SDS011;64606;44.062;2.986;2022-12-01T07:33:40;6.53;;;2.05;;
75928;SDS011;64606;44.062;2.986;2022-12-01T07:36:07;7.57;;;2.20;;
75928;SDS011;64606;44.062;2.986;2022-12-01T07:38:33;10.02;;;2.40;;
75928;SDS011;64606;44.062;2.986;2022-12-01T07:41:00;4.70;;;2.10;;
75928;SDS011;64606;44.062;2.986;2022-12-01T07:43:26;3.97;;;2.15;;
75928;SDS011;64606;44.062;2.986;2022-12-01T07:45:52;4.80;;;2.30;;
75928;SDS011;64606;44.062;2.986;2022-12-01T07:48:18;2.65;;;1.98;;
75928;SDS011;64606;44.062;2.986;2022-12-01T07:50:44;5.35;;;2.25;;
75928;SDS011;64606;44.062;2.986;2022-12-01T07:53:11;5.97;;;2.40;;
75928;SDS011;64606;44.062;2.986;2022-12-01T07:55:37;5.20;;;2.55;;
75928;SDS011;64606;44.062;2.986;2022-12-01T07:58:03;3.33;;;1.98;;
75928;SDS011;64606;44.062;2.986;2022-12-01T08:00:29;9.68;;;2.55;;
75928;SDS011;64606;44.062;2.986;2022-12-01T08:02:55;8.25;;;2.47;;
75928;SDS011;64606;44.062;2.986;2022-12-01T08:05:21;2.85;;;2.33;;
75928;SDS011;64606;44.062;2.986;2022-12-01T08:07:47;4.88;;;2.00;;
75928;SDS011;64606;44.062;2.986;2022-12-01T08:10:13;3.63;;;2.00;;
75928;SDS011;64606;44.062;2.986;2022-12-01T08:12:39;4.03;;;2.08;;
75928;SDS011;64606;44.062;2.986;2022-12-01T08:15:06;3.17;;;1.90;;
75928;SDS011;64606;44.062;2.986;2022-12-01T08:17:32;3.90;;;1.70;;
75928;SDS011;64606;44.062;2.986;2022-12-01T08:19:58;4.53;;;1.92;;
75928;SDS011;64606;44.062;2.986;2022-12-01T08:22:24;4.75;;;1.95;;
75928;SDS011;64606;44.062;2.986;2022-12-01T08:24:50;2.47;;;2.10;;
75928;SDS011;64606;44.062;2.986;2022-12-01T08:27:16;2.08;;;1.55;;
75928;SDS011;64606;44.062;2.986;2022-12-01T08:29:42;2.15;;;1.70;;
75928;SDS011;64606;44.062;2.986;2022-12-01T08:32:08;3.38;;;1.80;;
75928;SDS011;64606;44.062;2.986;2022-12-01T08:34:34;2.47;;;2.00;;
75928;SDS011;64606;44.062;2.986;2022-12-01T08:37:05;3.10;;;2.00;;
75928;SDS011;64606;44.062;2.986;2022-12-01T08:39:31;2.45;;;1.90;;
75928;SDS011;64606;44.062;2.986;2022-12-01T08:41:57;3.88;;;2.05;;
75928;SDS011;64606;44.062;2.986;2022-12-01T08:44:23;2.08;;;1.85;;
75928;SDS011;64606;44.062;2.986;2022-12-01T08:46:49;3.15;;;1.73;;
75928;SDS011;64606;44.062;2.986;2022-12-01T08:49:16;1.70;;;1.60;;
75928;SDS011;64606;44.062;2.986;2022-12-01T08:51:42;1.88;;;1.63;;
75928;SDS011;64606;44.062;2.986;2022-12-01T08:54:09;2.17;;;1.45;;
75928;SDS011;64606;44.062;2.986;2022-12-01T08:56:36;4.00;;;2.17;;
75928;SDS011;64606;44.062;2.986;2022-12-01T08:59:03;2.13;;;1.67;;
75928;SDS011;64606;44.062;2.986;2022-12-01T09:01:29;3.05;;;1.70;;
75928;SDS011;64606;44.062;2.986;2022-12-01T09:03:57;1.92;;;1.60;;
75928;SDS011;64606;44.062;2.986;2022-12-01T09:06:40;2.40;;;1.70;;
75928;SDS011;64606;44.062;2.986;2022-12-01T09:09:07;2.70;;;1.40;;
75928;SDS011;64606;44.062;2.986;2022-12-01T09:11:33;1.70;;;1.40;;
75928;SDS011;64606;44.062;2.986;2022-12-01T09:13:59;1.95;;;1.50;;
75928;SDS011;64606;44.062;2.986;2022-12-01T09:16:25;1.30;;;1.20;;
75928;SDS011;64606;44.062;2.986;2022-12-01T09:18:52;2.58;;;1.60;;
75928;SDS011;64606;44.062;2.986;2022-12-01T09:21:28;1.60;;;1.50;;
75928;SDS011;64606;44.062;2.986;2022-12-01T09:23:54;2.65;;;1.80;;
75928;SDS011;64606;44.062;2.986;2022-12-01T09:26:21;1.70;;;1.60;;
75928;SDS011;64606;44.062;2.986;2022-12-01T09:28:48;3.45;;;1.75;;
75928;SDS011;64606;44.062;2.986;2022-12-01T09:31:15;1.70;;;1.60;;
75928;SDS011;64606;44.062;2.986;2022-12-01T09:33:42;1.65;;;1.40;;
75928;SDS011;64606;44.062;2.986;2022-12-01T09:36:09;2.00;;;1.77;;
75928;SDS011;64606;44.062;2.986;2022-12-01T09:38:35;1.92;;;1.73;;
75928;SDS011;64606;44.062;2.986;2022-12-01T09:41:06;1.67;;;1.58;;
75928;SDS011;64606;44.062;2.986;2022-12-01T09:43:44;2.88;;;1.55;;
75928;SDS011;64606;44.062;2.986;2022-12-01T09:46:15;1.88;;;1.60;;
75928;SDS011;64606;44.062;2.986;2022-12-01T09:48:46;2.03;;;1.83;;
75928;SDS011;64606;44.062;2.986;2022-12-01T09:51:17;3.17;;;1.75;;
75928;SDS011;64606;44.062;2.986;2022-12-01T09:53:43;1.52;;;1.42;;
75928;SDS011;64606;44.062;2.986;2022-12-01T09:56:16;1.48;;;1.38;;
75928;SDS011;64606;44.062;2.986;2022-12-01T09:58:43;1.70;;;1.60;;
75928;SDS011;64606;44.062;2.986;2022-12-01T10:01:13;1.60;;;1.50;;
75928;SDS011;64606;44.062;2.986;2022-12-01T10:03:49;1.58;;;1.48;;
75928;SDS011;64606;44.062;2.986;2022-12-01T10:06:26;1.67;;;1.58;;
75928;SDS011;64606;44.062;2.986;2022-12-01T10:09:37;1.30;;;1.20;;
75928;SDS011;64606;44.062;2.986;2022-12-01T10:11:44;2.00;;;1.73;;
75928;SDS011;64606;44.062;2.986;2022-12-01T10:14:12;1.60;;;1.50;;
75928;SDS011;64606;44.062;2.986;2022-12-01T10:17:05;1.30;;;1.20;;
75928;SDS011;64606;44.062;2.986;2022-12-01T10:19:30;1.40;;;1.30;;
75928;SDS011;64606;44.062;2.986;2022-12-01T10:32:08;2.22;;;1.70;;
75928;SDS011;64606;44.062;2.986;2022-12-01T10:34:37;1.60;;;1.40;;
75928;SDS011;64606;44.062;2.986;2022-12-01T10:37:04;1.50;;;1.40;;
75928;SDS011;64606;44.062;2.986;2022-12-01T10:39:37;3.38;;;1.50;;
75928;SDS011;64606;44.062;2.986;2022-12-01T10:44:49;2.78;;;1.27;;
75928;SDS011;64606;44.062;2.986;2022-12-01T10:47:19;1.55;;;1.30;;
75928;SDS011;64606;44.062;2.986;2022-12-01T10:49:46;1.30;;;1.20;;
75928;SDS011;64606;44.062;2.986;2022-12-01T10:54:56;1.73;;;1.45;;
75928;SDS011;64606;44.062;2.986;2022-12-01T10:57:23;1.45;;;1.35;;
75928;SDS011;64606;44.062;2.986;2022-12-01T10:59:53;1.42;;;1.33;;
75928;SDS011;64606;44.062;2.986;2022-12-01T11:02:21;1.75;;;1.42;;
75928;SDS011;64606;44.062;2.986;2022-12-01T11:04:54;1.70;;;1.48;;
75928;SDS011;64606;44.062;2.986;2022-12-01T11:07:32;2.38;;;1.60;;
75928;SDS011;64606;44.062;2.986;2022-12-01T11:12:25;1.95;;;1.70;;
75928;SDS011;64606;44.062;2.986;2022-12-01T11:14:51;1.90;;;1.70;;
75928;SDS011;64606;44.062;2.986;2022-12-01T11:19:48;1.80;;;1.70;;
75928;SDS011;64606;44.062;2.986;2022-12-01T11:22:19;2.38;;;1.60;;
75928;SDS011;64606;44.062;2.986;2022-12-01T11:27:18;62.30;;;4.38;;
75928;SDS011;64606;44.062;2.986;2022-12-01T11:29:46;5.55;;;1.90;;
75928;SDS011;64606;44.062;2.986;2022-12-01T11:34:50;2.95;;;2.30;;
75928;SDS011;64606;44.062;2.986;2022-12-01T11:37:17;3.33;;;2.13;;
75928;SDS011;64606;44.062;2.986;2022-12-01T11:39:43;3.83;;;2.42;;
75928;SDS011;64606;44.062;2.986;2022-12-01T11:42:28;4.35;;;2.17;;
75928;SDS011;64606;44.062;2.986;2022-12-01T11:44:56;5.32;;;2.53;;
75928;SDS011;64606;44.062;2.986;2022-12-01T11:47:25;3.28;;;2.22;;
75928;SDS011;64606;44.062;2.986;2022-12-01T11:49:56;3.28;;;2.30;;
75928;SDS011;64606;44.062;2.986;2022-12-01T11:52:24;5.45;;;2.58;;
75928;SDS011;64606;44.062;2.986;2022-12-01T11:55:18;12.15;;;2.65;;
75928;SDS011;64606;44.062;2.986;2022-12-01T11:57:45;8.05;;;3.10;;
75928;SDS011;64606;44.062;2.986;2022-12-01T12:00:20;5.55;;;2.92;;
75928;SDS011;64606;44.062;2.986;2022-12-01T12:05:43;9.88;;;2.70;;
75928;SDS011;64606;44.062;2.986;2022-12-01T12:08:17;9.48;;;2.97;;
75928;SDS011;64606;44.062;2.986;2022-12-01T12:13:35;11.63;;;2.97;;
75928;SDS011;64606;44.062;2.986;2022-12-01T12:21:30;5.47;;;2.40;;
75928;SDS011;64606;44.062;2.986;2022-12-01T12:24:00;8.88;;;2.58;;
75928;SDS011;64606;44.062;2.986;2022-12-01T12:26:29;5.20;;;2.30;;
75928;SDS011;64606;44.062;2.986;2022-12-01T12:36:35;4.60;;;2.20;;
75928;SDS011;64606;44.062;2.986;2022-12-01T12:39:14;4.82;;;2.20;;
75928;SDS011;64606;44.062;2.986;2022-12-01T12:41:44;3.65;;;2.20;;
75928;SDS011;64606;44.062;2.986;2022-12-01T12:47:05;9.30;;;2.03;;
75928;SDS011;64606;44.062;2.986;2022-12-01T12:49:46;4.43;;;1.90;;
75928;SDS011;64606;44.062;2.986;2022-12-01T12:52:15;3.28;;;2.00;;
75928;SDS011;64606;44.062;2.986;2022-12-01T12:57:33;4.97;;;2.05;;
75928;SDS011;64606;44.062;2.986;2022-12-01T13:00:05;4.00;;;1.98;;
75928;SDS011;64606;44.062;2.986;2022-12-01T13:05:09;4.13;;;1.60;;
75928;SDS011;64606;44.062;2.986;2022-12-01T13:07:41;4.40;;;1.98;;
75928;SDS011;64606;44.062;2.986;2022-12-01T13:10:19;3.05;;;1.50;;
75928;SDS011;64606;44.062;2.986;2022-12-01T13:12:55;3.20;;;1.70;;
75928;SDS011;64606;44.062;2.986;2022-12-01T13:15:22;2.90;;;1.50;;
75928;SDS011;64606;44.062;2.986;2022-12-01T13:17:54;2.00;;;1.60;;
75928;SDS011;64606;44.062;2.986;2022-12-01T13:20:24;2.40;;;1.70;;
75928;SDS011;64606;44.062;2.986;2022-12-01T13:22:51;3.72;;;1.58;;
75928;SDS011;64606;44.062;2.986;2022-12-01T13:25:29;3.03;;;1.80;;
75928;SDS011;64606;44.062;2.986;2022-12-01T13:27:57;3.03;;;1.60;;
75928;SDS011;64606;44.062;2.986;2022-12-01T13:30:25;3.33;;;1.70;;
75928;SDS011;64606;44.062;2.986;2022-12-01T13:32:59;2.45;;;1.60;;
75928;SDS011;64606;44.062;2.986;2022-12-01T13:35:32;4.80;;;1.70;;
75928;SDS011;64606;44.062;2.986;2022-12-01T13:40:44;3.90;;;1.60;;
75928;SDS011;64606;44.062;2.986;2022-12-01T13:43:20;3.45;;;1.60;;
75928;SDS011;64606;44.062;2.986;2022-12-01T13:45:47;1.55;;;1.42;;
75928;SDS011;64606;44.062;2.986;2022-12-01T13:48:27;1.70;;;1.60;;
75928;SDS011;64606;44.062;2.986;2022-12-01T13:53:31;1.40;;;1.30;;
75928;SDS011;64606;44.062;2.986;2022-12-01T14:01:50;3.05;;;1.58;;
75928;SDS011;64606;44.062;2.986;2022-12-01T14:06:44;4.43;;;1.55;;
75928;SDS011;64606;44.062;2.986;2022-12-01T14:09:27;1.83;;;1.60;;
75928;SDS011;64606;44.062;2.986;2022-12-01T14:12:00;1.42;;;1.30;;
75928;SDS011;64606;44.062;2.986;2022-12-01T14:14:27;2.55;;;1.33;;
75928;SDS011;64606;44.062;2.986;2022-12-01T14:16:58;1.92;;;1.50;;
75928;SDS011;64606;44.062;2.986;2022-12-01T14:19:38;4.03;;;1.60;;
75928;SDS011;64606;44.062;2.986;2022-12-01T14:22:28;2.05;;;1.70;;
75928;SDS011;64606;44.062;2.986;2022-12-01T14:24:53;4.78;;;1.90;;
75928;SDS011;64606;44.062;2.986;2022-12-01T14:27:42;2.67;;;2.03;;
75928;SDS011;64606;44.062;2.986;2022-12-01T14:32:51;2.05;;;1.85;;
75928;SDS011;64606;44.062;2.986;2022-12-01T14:35:17;3.08;;;2.30;;
75928;SDS011;64606;44.062;2.986;2022-12-01T14:37:44;3.10;;;2.42;;
75928;SDS011;64606;44.062;2.986;2022-12-01T14:40:14;2.78;;;2.10;;
75928;SDS011;64606;44.062;2.986;2022-12-01T14:42:42;2.67;;;2.00;;
75928;SDS011;64606;44.062;2.986;2022-12-01T14:48:17;3.15;;;1.95;;
75928;SDS011;64606;44.062;2.986;2022-12-01T14:50:48;2.95;;;2.00;;
75928;SDS011;64606;44.062;2.986;2022-12-01T14:55:41;4.10;;;2.30;;
75928;SDS011;64606;44.062;2.986;2022-12-01T14:58:16;2.92;;;2.40;;
75928;SDS011;64606;44.062;2.986;2022-12-01T15:00:57;2.92;;;2.40;;
75928;SDS011;64606;44.062;2.986;2022-12-01T15:03:24;4.88;;;2.55;;
75928;SDS011;64606;44.062;2.986;2022-12-01T15:05:52;3.70;;;2.72;;
75928;SDS011;64606;44.062;2.986;2022-12-01T15:08:20;5.00;;;2.40;;
75928;SDS011;64606;44.062;2.986;2022-12-01T15:10:48;3.85;;;2.60;;
75928;SDS011;64606;44.062;2.986;2022-12-01T15:15:51;4.57;;;2.95;;
75928;SDS011;64606;44.062;2.986;2022-12-01T15:18:35;4.22;;;2.80;;
75928;SDS011;64606;44.062;2.986;2022-12-01T15:21:06;6.32;;;2.80;;
75928;SDS011;64606;44.062;2.986;2022-12-01T15:23:34;3.75;;;3.00;;
75928;SDS011;64606;44.062;2.986;2022-12-01T15:26:00;3.72;;;3.03;;
75928;SDS011;64606;44.062;2.986;2022-12-01T15:28:30;5.25;;;3.25;;
75928;SDS011;64606;44.062;2.986;2022-12-01T15:30:57;4.18;;;3.25;;
75928;SDS011;64606;44.062;2.986;2022-12-01T15:33:33;4.15;;;3.30;;
75928;SDS011;64606;44.062;2.986;2022-12-01T15:36:00;4.93;;;3.22;;
75928;SDS011;64606;44.062;2.986;2022-12-01T15:38:27;4.25;;;3.38;;
75928;SDS011;64606;44.062;2.986;2022-12-01T15:40:54;5.53;;;3.47;;
75928;SDS011;64606;44.062;2.986;2022-12-01T15:43:22;5.00;;;3.72;;
75928;SDS011;64606;44.062;2.986;2022-12-01T15:45:55;3.83;;;3.13;;
75928;SDS011;64606;44.062;2.986;2022-12-01T15:48:29;3.95;;;3.55;;
75928;SDS011;64606;44.062;2.986;2022-12-01T15:51:28;4.57;;;3.45;;
75928;SDS011;64606;44.062;2.986;2022-12-01T15:53:49;5.60;;;3.13;;
75928;SDS011;64606;44.062;2.986;2022-12-01T15:56:15;5.05;;;3.58;;
75928;SDS011;64606;44.062;2.986;2022-12-01T15:58:48;5.50;;;3.40;;
75928;SDS011;64606;44.062;2.986;2022-12-01T16:01:17;4.70;;;3.30;;
75928;SDS011;64606;44.062;2.986;2022-12-01T16:03:54;4.13;;;3.22;;
75928;SDS011;64606;44.062;2.986;2022-12-01T16:06:25;3.70;;;3.10;;
75928;SDS011;64606;44.062;2.986;2022-12-01T16:11:30;5.97;;;3.30;;
75928;SDS011;64606;44.062;2.986;2022-12-01T16:14:03;3.67;;;2.97;;
75928;SDS011;64606;44.062;2.986;2022-12-01T16:16:35;6.55;;;3.25;;
75928;SDS011;64606;44.062;2.986;2022-12-01T16:19:04;5.95;;;3.65;;
75928;SDS011;64606;44.062;2.986;2022-12-01T16:21:48;4.88;;;3.40;;
75928;SDS011;64606;44.062;2.986;2022-12-01T16:24:16;5.18;;;3.40;;
75928;SDS011;64606;44.062;2.986;2022-12-01T16:27:02;4.20;;;3.10;;
75928;SDS011;64606;44.062;2.986;2022-12-01T16:29:29;4.25;;;2.90;;
75928;SDS011;64606;44.062;2.986;2022-12-01T16:31:57;4.53;;;3.00;;
75928;SDS011;64606;44.062;2.986;2022-12-01T16:34:25;4.57;;;3.20;;
75928;SDS011;64606;44.062;2.986;2022-12-01T16:36:51;3.72;;;2.72;;
75928;SDS011;64606;44.062;2.986;2022-12-01T16:39:18;4.13;;;3.15;;
75928;SDS011;64606;44.062;2.986;2022-12-01T16:41:44;5.85;;;3.47;;
75928;SDS011;64606;44.062;2.986;2022-12-01T16:44:12;6.40;;;3.13;;
75928;SDS011;64606;44.062;2.986;2022-12-01T16:46:39;3.95;;;3.38;;
75928;SDS011;64606;44.062;2.986;2022-12-01T16:49:05;4.50;;;3.38;;
75928;SDS011;64606;44.062;2.986;2022-12-01T16:51:32;5.72;;;3.35;;
75928;SDS011;64606;44.062;2.986;2022-12-01T16:53:58;6.47;;;3.67;;
75928;SDS011;64606;44.062;2.986;2022-12-01T16:56:25;12.68;;;4.38;;
75928;SDS011;64606;44.062;2.986;2022-12-01T16:58:51;22.02;;;4.70;;
75928;SDS011;64606;44.062;2.986;2022-12-01T17:01:17;14.32;;;4.95;;
75928;SDS011;64606;44.062;2.986;2022-12-01T17:03:43;32.42;;;5.10;;